createdAt,value
2023-10-10T00:02:19.711Z,14.10
2023-10-10T00:04:49.327Z,14.10
2023-10-10T00:07:20.111Z,14.10
2023-10-10T00:09:49.089Z,14.10
2023-10-10T00:12:26.735Z,14.00
2023-10-10T00:14:58.430Z,14.00
2023-10-10T00:17:36.044Z,14.00
2023-10-10T00:20:17.495Z,13.90
2023-10-10T00:22:49.255Z,13.90
2023-10-10T00:25:20.316Z,13.90
2023-10-10T00:27:49.444Z,13.90
2023-10-10T00:30:17.801Z,13.90
2023-10-10T00:32:47.475Z,13.90
2023-10-10T00:35:18.913Z,13.80
2023-10-10T00:37:50.170Z,13.80
2023-10-10T00:40:31.805Z,13.80
2023-10-10T00:43:00.724Z,13.70
2023-10-10T00:45:36.922Z,13.80
2023-10-10T00:48:10.502Z,13.70
2023-10-10T00:50:44.705Z,13.60
2023-10-10T00:53:17.091Z,13.60
2023-10-10T00:55:53.392Z,13.60
2023-10-10T00:58:23.573Z,13.60
2023-10-10T01:00:54.644Z,13.60
2023-10-10T01:03:23.213Z,13.60
2023-10-10T01:05:54.637Z,13.50
2023-10-10T01:08:28.721Z,13.50
2023-10-10T01:11:05.484Z,13.50
2023-10-10T01:13:34.927Z,13.50
2023-10-10T01:16:06.461Z,13.40
2023-10-10T01:18:41.295Z,13.40
2023-10-10T01:21:19.953Z,13.40
2023-10-10T01:23:48.911Z,13.40
2023-10-10T01:26:17.528Z,13.30
2023-10-10T01:28:47.995Z,13.30
2023-10-10T01:31:19.346Z,13.30
2023-10-10T01:33:50.752Z,13.30
2023-10-10T01:36:23.919Z,13.20
2023-10-10T01:39:09.496Z,13.20
2023-10-10T01:41:40.706Z,13.20
2023-10-10T01:44:13.735Z,13.20
2023-10-10T01:46:42.675Z,13.20
2023-10-10T01:49:21.115Z,13.20
2023-10-10T01:51:56.297Z,13.20
2023-10-10T01:54:35.690Z,13.20
2023-10-10T01:57:08.939Z,13.10
2023-10-10T01:59:39.635Z,13.10
2023-10-10T02:02:12.326Z,13.10
2023-10-10T02:04:41.132Z,13.00
2023-10-10T02:07:23.303Z,13.00
2023-10-10T02:10:01.546Z,13.00
2023-10-10T02:12:34.810Z,12.90
2023-10-10T02:15:04.651Z,12.90
2023-10-10T02:17:40.618Z,12.90
2023-10-10T02:20:33.804Z,12.80
2023-10-10T02:23:25.060Z,12.70
2023-10-10T02:25:54.861Z,12.70
2023-10-10T02:28:43.292Z,12.70
2023-10-10T02:31:14.324Z,12.60
2023-10-10T02:33:49.655Z,12.60
2023-10-10T02:36:30.975Z,12.60
2023-10-10T02:39:13.336Z,12.60
2023-10-10T02:41:49.117Z,12.60
2023-10-10T02:44:27.960Z,12.60
2023-10-10T02:46:56.369Z,12.60
2023-10-10T02:49:30.973Z,12.60
2023-10-10T02:52:07.579Z,12.60
2023-10-10T02:54:44.637Z,12.60
2023-10-10T02:57:31.717Z,12.60
2023-10-10T03:00:17.027Z,12.50
2023-10-10T03:02:51.472Z,12.50
2023-10-10T03:05:39.471Z,12.40
2023-10-10T03:08:15.614Z,12.40
2023-10-10T03:10:54.848Z,12.40
2023-10-10T03:13:37.326Z,12.40
2023-10-10T03:16:38.066Z,12.30
2023-10-10T03:19:29.276Z,12.30
2023-10-10T03:22:16.184Z,12.30
2023-10-10T03:25:08.625Z,12.20
2023-10-10T03:27:56.248Z,12.20
2023-10-10T03:30:36.053Z,12.10
2023-10-10T03:33:10.726Z,12.10
2023-10-10T03:36:01.011Z,12.00
2023-10-10T03:39:00.312Z,12.00
2023-10-10T03:41:48.833Z,12.00
2023-10-10T03:44:35.950Z,12.00
2023-10-10T03:47:21.550Z,11.90
2023-10-10T03:50:07.758Z,11.90
2023-10-10T03:52:49.951Z,11.90
2023-10-10T03:55:50.162Z,11.80
2023-10-10T03:58:35.714Z,11.80
2023-10-10T04:01:22.667Z,11.70
2023-10-10T04:04:08.408Z,11.70
2023-10-10T04:07:08.853Z,11.60
2023-10-10T04:09:54.558Z,11.60
2023-10-10T04:12:40.348Z,11.60
2023-10-10T04:15:31.819Z,11.60
2023-10-10T04:18:33.733Z,11.50
2023-10-10T04:21:26.041Z,11.50
2023-10-10T04:24:11.807Z,11.40
2023-10-10T04:26:57.780Z,11.40
2023-10-10T04:29:43.578Z,11.40
2023-10-10T04:32:29.945Z,11.30
2023-10-10T04:35:17.187Z,11.30
2023-10-10T04:38:02.997Z,11.20
2023-10-10T04:40:48.959Z,11.20
2023-10-10T04:43:34.698Z,11.20
2023-10-10T04:46:20.890Z,11.20
2023-10-10T04:49:06.878Z,11.20
2023-10-10T04:51:53.830Z,11.10
2023-10-10T04:54:39.436Z,11.10
2023-10-10T04:57:25.016Z,11.10
2023-10-10T05:00:10.687Z,11.10
2023-10-10T05:02:56.298Z,11.10
2023-10-10T05:05:41.922Z,11.00
2023-10-10T05:08:29.272Z,11.10
2023-10-10T05:11:15.313Z,11.10
2023-10-10T05:14:01.338Z,11.00
2023-10-10T05:16:46.787Z,11.00
2023-10-10T05:19:32.323Z,10.90
2023-10-10T05:22:17.939Z,10.90
2023-10-10T05:24:53.041Z,10.90
2023-10-10T05:27:30.784Z,10.90
2023-10-10T05:30:00.637Z,10.90
2023-10-10T05:32:31.475Z,10.80
2023-10-10T05:35:04.707Z,10.80
2023-10-10T05:37:34.622Z,10.80
2023-10-10T05:40:08.110Z,10.80
2023-10-10T05:42:36.435Z,10.70
2023-10-10T05:45:09.698Z,10.70
2023-10-10T05:47:38.762Z,10.60
2023-10-10T05:50:11.316Z,10.60
2023-10-10T05:52:40.056Z,10.60
2023-10-10T05:55:11.876Z,10.60
2023-10-10T05:57:41.001Z,10.60
2023-10-10T06:00:12.414Z,10.60
2023-10-10T06:02:44.349Z,10.60
2023-10-10T06:05:13.618Z,10.60
2023-10-10T06:07:44.193Z,10.60
2023-10-10T06:10:17.356Z,10.50
2023-10-10T06:12:46.591Z,10.50
2023-10-10T06:15:17.893Z,10.50
2023-10-10T06:17:46.566Z,10.50
2023-10-10T06:20:17.668Z,10.50
2023-10-10T06:22:46.940Z,10.50
2023-10-10T06:25:18.851Z,10.50
2023-10-10T06:27:47.219Z,10.40
2023-10-10T06:30:19.478Z,10.50
2023-10-10T06:32:48.559Z,10.50
2023-10-10T06:35:29.239Z,10.50
2023-10-10T06:37:59.503Z,10.50
2023-10-10T06:40:30.338Z,10.60
2023-10-10T06:43:01.028Z,10.60
2023-10-10T06:45:36.624Z,10.60
2023-10-10T06:48:05.455Z,10.60
2023-10-10T06:50:34.227Z,10.70
2023-10-10T06:53:02.699Z,10.70
2023-10-10T06:55:38.369Z,10.70
2023-10-10T06:58:07.616Z,10.70
2023-10-10T07:00:46.256Z,10.70
2023-10-10T07:03:19.818Z,10.70
2023-10-10T07:05:49.715Z,10.80
2023-10-10T07:08:26.079Z,10.80
2023-10-10T07:10:56.037Z,10.90
2023-10-10T07:13:30.640Z,10.90
2023-10-10T07:15:59.531Z,11.00
2023-10-10T07:18:27.998Z,11.10
2023-10-10T07:21:09.433Z,11.10
2023-10-10T07:24:00.042Z,11.20
2023-10-10T07:26:32.295Z,11.30
2023-10-10T07:29:20.708Z,11.60
2023-10-10T07:31:49.003Z,12.10
2023-10-10T07:34:17.586Z,12.70
2023-10-10T07:36:51.523Z,13.30
2023-10-10T07:39:35.072Z,13.80
2023-10-10T07:42:10.348Z,14.20
2023-10-10T07:44:39.938Z,14.60
2023-10-10T07:47:27.233Z,15.10
2023-10-10T07:49:56.091Z,15.70
2023-10-10T07:52:29.530Z,16.20
2023-10-10T07:55:04.974Z,16.70
2023-10-10T07:57:56.930Z,17.20
2023-10-10T08:00:36.022Z,17.60
2023-10-10T08:03:05.874Z,18.20
2023-10-10T08:05:34.676Z,18.70
2023-10-10T08:08:05.769Z,19.10
2023-10-10T08:10:39.383Z,19.60
2023-10-10T08:13:11.448Z,20.00
2023-10-10T08:15:51.237Z,20.50
2023-10-10T08:18:40.346Z,20.90
2023-10-10T08:21:12.658Z,21.30
2023-10-10T08:23:44.300Z,21.70
2023-10-10T08:26:19.337Z,22.10
2023-10-10T08:28:50.952Z,22.50
2023-10-10T08:31:19.934Z,22.90
2023-10-10T08:33:48.626Z,23.30
2023-10-10T08:36:24.612Z,23.80
2023-10-10T08:38:53.776Z,24.20
2023-10-10T08:41:27.817Z,24.80
2023-10-10T08:44:02.496Z,25.10
2023-10-10T08:46:32.735Z,25.50
2023-10-10T08:49:05.697Z,25.80
2023-10-10T08:51:35.324Z,26.00
2023-10-10T08:54:10.848Z,26.30
2023-10-10T08:56:41.463Z,26.60
2023-10-10T08:59:12.558Z,27.00
2023-10-10T09:01:43.429Z,27.30
2023-10-10T09:04:20.348Z,27.60
2023-10-10T09:06:59.540Z,27.80
2023-10-10T09:09:39.125Z,27.90
2023-10-10T09:12:13.935Z,28.10
2023-10-10T09:14:50.837Z,28.40
2023-10-10T09:17:30.717Z,28.60
2023-10-10T09:19:59.405Z,28.90
2023-10-10T09:22:31.606Z,29.10
2023-10-10T09:25:00.912Z,29.30
2023-10-10T09:27:29.975Z,29.50
2023-10-10T09:30:09.777Z,29.70
2023-10-10T09:32:43.856Z,30.10
2023-10-10T09:35:14.525Z,30.40
2023-10-10T09:37:45.389Z,30.60
2023-10-10T09:40:22.871Z,30.70
2023-10-10T09:43:04.978Z,30.90
2023-10-10T09:45:54.070Z,31.20
2023-10-10T09:48:41.387Z,31.50
2023-10-10T09:51:17.458Z,31.60
2023-10-10T09:53:48.138Z,31.80
2023-10-10T09:56:22.479Z,31.80
2023-10-10T09:58:54.329Z,32.00
2023-10-10T10:01:25.701Z,32.10
2023-10-10T10:04:01.191Z,32.40
2023-10-10T10:07:07.129Z,32.40
2023-10-10T10:09:52.715Z,32.50
2023-10-10T10:12:43.694Z,32.70
2023-10-10T10:15:25.311Z,32.90
2023-10-10T10:18:13.301Z,33.10
2023-10-10T10:20:50.621Z,33.20
2023-10-10T10:23:26.740Z,33.00
2023-10-10T10:26:05.533Z,33.20
2023-10-10T10:28:36.888Z,33.40
2023-10-10T10:31:09.064Z,33.50
2023-10-10T10:33:54.022Z,33.70
2023-10-10T10:36:28.387Z,33.60
2023-10-10T10:39:16.014Z,33.70
2023-10-10T10:41:49.388Z,33.90
2023-10-10T10:44:46.579Z,33.70
2023-10-10T10:47:55.184Z,33.70
2023-10-10T10:50:43.643Z,33.80
2023-10-10T10:53:36.181Z,34.00
2023-10-10T10:56:28.018Z,34.00
2023-10-10T11:01:56.681Z,34.30
2023-10-10T11:04:44.722Z,34.30
2023-10-10T11:07:27.391Z,34.40
2023-10-10T11:10:08.035Z,34.30
2023-10-10T11:12:39.181Z,34.10
2023-10-10T11:15:12.233Z,34.00
2023-10-10T11:17:44.396Z,34.10
2023-10-10T11:20:30.536Z,34.00
2023-10-10T11:23:12.595Z,33.90
2023-10-10T11:25:47.771Z,33.90
2023-10-10T11:28:25.598Z,34.10
2023-10-10T11:30:59.676Z,34.00
2023-10-10T11:33:52.589Z,34.00
2023-10-10T11:36:39.052Z,34.00
2023-10-10T11:39:32.375Z,33.80
2023-10-10T11:42:05.649Z,33.60
2023-10-10T11:44:35.231Z,33.70
2023-10-10T11:47:08.589Z,33.80
2023-10-10T11:49:42.901Z,33.60
2023-10-10T11:52:20.233Z,33.40
2023-10-10T11:54:48.566Z,33.40
2023-10-10T11:57:16.905Z,33.20
2023-10-10T11:59:48.279Z,33.10
2023-10-10T12:02:19.664Z,32.90
2023-10-10T12:04:49.657Z,32.70
2023-10-10T12:07:19.447Z,32.50
2023-10-10T12:09:53.079Z,32.40
2023-10-10T12:12:22.898Z,32.30
2023-10-10T12:14:52.134Z,32.10
2023-10-10T12:17:22.580Z,32.00
2023-10-10T12:19:52.903Z,32.10
2023-10-10T12:22:23.835Z,32.00
2023-10-10T12:24:52.653Z,31.80
2023-10-10T12:27:20.942Z,31.90
2023-10-10T12:29:49.496Z,31.80
2023-10-10T12:32:20.445Z,31.50
2023-10-10T12:34:49.842Z,31.50
2023-10-10T12:37:19.640Z,31.40
2023-10-10T12:39:50.305Z,31.30
2023-10-10T12:42:18.676Z,31.30
2023-10-10T12:44:49.745Z,31.00
2023-10-10T12:47:20.799Z,30.90
2023-10-10T12:49:49.635Z,30.70
2023-10-10T12:52:19.923Z,30.50
2023-10-10T12:54:58.381Z,30.30
2023-10-10T12:57:33.472Z,30.10
2023-10-10T13:00:23.348Z,30.00
2023-10-10T13:02:54.728Z,29.90
2023-10-10T13:05:28.634Z,29.80
2023-10-10T13:08:00.484Z,29.70
2023-10-10T13:10:34.547Z,29.70
2023-10-10T13:13:03.791Z,29.60
2023-10-10T13:15:48.003Z,29.50
2023-10-10T13:18:23.816Z,29.40
2023-10-10T13:20:52.474Z,29.30
2023-10-10T13:23:23.109Z,29.20
2023-10-10T13:25:51.474Z,29.20
2023-10-10T13:28:21.792Z,29.10
2023-10-10T13:30:50.338Z,29.00
2023-10-10T13:33:21.372Z,28.90
2023-10-10T13:35:50.041Z,28.80
2023-10-10T13:38:18.689Z,28.70
2023-10-10T13:40:50.360Z,28.60
2023-10-10T13:43:19.159Z,28.50
2023-10-10T13:45:49.315Z,28.40
2023-10-10T13:48:19.608Z,28.30
2023-10-10T13:50:52.157Z,28.20
2023-10-10T13:53:21.457Z,28.10
2023-10-10T13:55:52.057Z,28.00
2023-10-10T13:58:20.603Z,28.00
2023-10-10T14:00:56.459Z,27.90
2023-10-10T14:03:31.098Z,27.80
2023-10-10T14:06:05.056Z,27.80
2023-10-10T14:08:33.843Z,27.80
2023-10-10T14:11:05.186Z,27.80
2023-10-10T14:13:35.740Z,27.80
2023-10-10T14:16:06.674Z,27.70
2023-10-10T14:18:43.820Z,27.60
2023-10-10T14:21:13.392Z,27.60
2023-10-10T14:23:42.692Z,27.50
2023-10-10T14:26:14.988Z,27.40
2023-10-10T14:28:51.173Z,27.40
2023-10-10T14:31:22.216Z,27.40
2023-10-10T14:33:50.987Z,27.30
2023-10-10T14:36:19.700Z,27.20
2023-10-10T14:38:51.133Z,27.10
2023-10-10T14:41:22.375Z,27.00
2023-10-10T14:43:51.710Z,27.00
2023-10-10T14:46:22.967Z,26.90
2023-10-10T14:48:52.883Z,26.80
2023-10-10T14:51:21.914Z,26.80
2023-10-10T14:53:53.982Z,26.80
2023-10-10T14:56:35.373Z,26.70
2023-10-10T14:59:09.391Z,26.70
2023-10-10T15:01:38.145Z,26.60
2023-10-10T15:04:07.740Z,26.60
2023-10-10T15:06:36.977Z,26.50
2023-10-10T15:09:05.673Z,26.50
2023-10-10T15:11:35.509Z,26.40
2023-10-10T15:14:07.693Z,26.40
2023-10-10T15:16:37.029Z,26.30
2023-10-10T15:19:07.857Z,26.30
2023-10-10T15:21:36.335Z,26.20
2023-10-10T15:24:06.122Z,26.10
2023-10-10T15:26:35.844Z,26.10
2023-10-10T15:29:04.695Z,26.10
2023-10-10T15:31:34.348Z,26.00
2023-10-10T15:34:02.661Z,26.00
2023-10-10T15:36:31.600Z,25.90
2023-10-10T15:39:05.057Z,25.90
2023-10-10T15:41:37.404Z,25.80
2023-10-10T15:44:07.925Z,25.80
2023-10-10T15:46:39.352Z,25.70
2023-10-10T15:49:21.155Z,25.70
2023-10-10T15:52:00.921Z,25.60
2023-10-10T15:54:35.348Z,25.60
2023-10-10T15:57:06.813Z,25.50
2023-10-10T16:00:08.931Z,25.40
2023-10-10T16:02:38.377Z,25.40
2023-10-10T16:05:08.119Z,25.30
2023-10-10T16:07:36.399Z,25.20
2023-10-10T16:10:08.631Z,25.10
2023-10-10T16:12:38.348Z,25.10
2023-10-10T16:15:30.762Z,25.10
2023-10-10T16:18:00.844Z,25.00
2023-10-10T16:20:29.384Z,25.00
2023-10-10T16:22:57.944Z,24.90
2023-10-10T16:25:26.134Z,24.80
2023-10-10T16:27:58.960Z,24.80
2023-10-10T16:30:28.695Z,24.70
2023-10-10T16:32:57.206Z,24.60
2023-10-10T16:35:25.691Z,24.50
2023-10-10T16:37:54.936Z,24.40
2023-10-10T16:40:23.416Z,24.30
2023-10-10T16:42:56.554Z,24.20
2023-10-10T16:45:26.434Z,24.10
2023-10-10T16:47:55.693Z,24.00
2023-10-10T16:50:24.171Z,24.00
2023-10-10T16:53:04.143Z,23.90
2023-10-10T16:55:39.313Z,23.80
2023-10-10T16:58:07.637Z,23.70
2023-10-10T17:00:37.453Z,23.60
2023-10-10T17:03:06.652Z,23.60
2023-10-10T17:05:37.537Z,23.50
2023-10-10T17:08:06.535Z,23.30
2023-10-10T17:10:37.711Z,23.20
2023-10-10T17:13:07.433Z,23.10
2023-10-10T17:15:40.824Z,23.00
2023-10-10T17:18:11.174Z,23.00
2023-10-10T17:20:42.730Z,22.80
2023-10-10T17:23:14.233Z,22.70
2023-10-10T17:25:42.982Z,22.60
2023-10-10T17:28:11.735Z,22.50
2023-10-10T17:30:41.501Z,22.40
2023-10-10T17:33:10.484Z,22.30
2023-10-10T17:35:41.768Z,22.20
2023-10-10T17:38:10.212Z,22.10
2023-10-10T17:40:40.934Z,21.90
2023-10-10T17:43:10.817Z,21.80
2023-10-10T17:45:43.519Z,21.70
2023-10-10T17:48:16.264Z,21.60
2023-10-10T17:50:45.944Z,21.50
2023-10-10T17:53:15.838Z,21.40
2023-10-10T17:55:44.881Z,21.20
2023-10-10T17:58:15.997Z,21.10
2023-10-10T18:00:48.555Z,21.00
2023-10-10T18:03:18.332Z,20.90
2023-10-10T18:05:46.811Z,20.80
2023-10-10T18:08:16.978Z,20.70
2023-10-10T18:10:45.913Z,20.60
2023-10-10T18:13:14.168Z,20.50
2023-10-10T18:15:47.447Z,20.40
2023-10-10T18:18:17.534Z,20.40
2023-10-10T18:20:48.408Z,20.20
2023-10-10T18:23:17.188Z,20.20
2023-10-10T18:25:45.535Z,20.10
2023-10-10T18:28:16.085Z,20.00
2023-10-10T18:30:44.832Z,19.90
2023-10-10T18:33:13.508Z,19.80
2023-10-10T18:35:43.571Z,19.70
2023-10-10T18:38:11.990Z,19.60
2023-10-10T18:40:42.304Z,19.60
2023-10-10T18:43:10.675Z,19.50
2023-10-10T18:45:39.490Z,19.50
2023-10-10T18:48:11.547Z,19.40
2023-10-10T18:50:40.656Z,19.30
2023-10-10T18:53:10.363Z,19.30
2023-10-10T18:55:38.661Z,19.20
2023-10-10T18:58:07.326Z,19.10
2023-10-10T19:00:37.138Z,19.00
2023-10-10T19:03:08.274Z,18.90
2023-10-10T19:05:37.740Z,18.80
2023-10-10T19:08:07.021Z,18.70
2023-10-10T19:10:38.844Z,18.70
2023-10-10T19:13:07.142Z,18.60
2023-10-10T19:15:38.935Z,18.50
2023-10-10T19:18:08.463Z,18.50
2023-10-10T19:20:37.972Z,18.40
2023-10-10T19:23:10.122Z,18.30
2023-10-10T19:25:50.142Z,18.20
2023-10-10T19:28:18.834Z,18.10
2023-10-10T19:30:47.393Z,18.00
2023-10-10T19:33:16.351Z,18.00
2023-10-10T19:35:45.733Z,17.90
2023-10-10T19:38:14.783Z,17.90
2023-10-10T19:40:45.238Z,17.80
2023-10-10T19:43:14.950Z,17.70
2023-10-10T19:45:43.469Z,17.60
2023-10-10T19:48:16.994Z,17.60
2023-10-10T19:50:47.294Z,17.50
2023-10-10T19:53:17.860Z,17.40
2023-10-10T19:55:50.247Z,17.40
2023-10-10T19:58:21.902Z,17.30
2023-10-10T20:00:50.598Z,17.30
2023-10-10T20:03:23.237Z,17.30
2023-10-10T20:05:53.839Z,17.20
2023-10-10T20:08:22.332Z,17.10
2023-10-10T20:10:52.830Z,17.10
2023-10-10T20:13:22.752Z,17.00
2023-10-10T20:15:53.906Z,17.00
2023-10-10T20:18:22.440Z,17.00
2023-10-10T20:20:51.595Z,16.90
2023-10-10T20:23:21.644Z,16.90
2023-10-10T20:25:52.364Z,16.90
2023-10-10T20:28:20.875Z,16.80
2023-10-10T20:30:49.678Z,16.80
2023-10-10T20:33:19.637Z,16.70
2023-10-10T20:35:48.358Z,16.70
2023-10-10T20:38:20.352Z,16.70
2023-10-10T20:40:49.453Z,16.70
2023-10-10T20:43:19.825Z,16.70
2023-10-10T20:45:48.136Z,16.60
2023-10-10T20:48:22.936Z,16.60
2023-10-10T20:50:51.718Z,16.50
2023-10-10T20:53:20.775Z,16.50
2023-10-10T20:55:51.031Z,16.50
2023-10-10T20:58:20.791Z,16.40
2023-10-10T21:00:50.172Z,16.40
2023-10-10T21:03:18.656Z,16.40
2023-10-10T21:05:48.723Z,16.40
2023-10-10T21:08:18.691Z,16.40
2023-10-10T21:10:47.534Z,16.30
2023-10-10T21:13:16.638Z,16.30
2023-10-10T21:15:46.356Z,16.20
2023-10-10T21:18:14.718Z,16.20
2023-10-10T21:20:56.846Z,16.20
2023-10-10T21:23:30.847Z,16.20
2023-10-10T21:25:59.196Z,16.10
2023-10-10T21:28:27.489Z,16.00
2023-10-10T21:30:57.850Z,15.90
2023-10-10T21:33:27.049Z,15.80
2023-10-10T21:35:55.368Z,15.80
2023-10-10T21:38:23.715Z,15.80
2023-10-10T21:40:52.008Z,15.70
2023-10-10T21:43:20.258Z,15.70
2023-10-10T21:45:48.594Z,15.60
2023-10-10T21:48:19.057Z,15.60
2023-10-10T21:50:48.260Z,15.50
2023-10-10T21:53:16.620Z,15.50
2023-10-10T21:55:44.884Z,15.50
2023-10-10T21:58:14.909Z,15.40
2023-10-10T22:00:59.782Z,15.50
2023-10-10T22:03:29.683Z,15.40
2023-10-10T22:05:58.848Z,15.40
2023-10-10T22:08:27.987Z,15.40
2023-10-10T22:10:58.663Z,15.40
2023-10-10T22:13:27.564Z,15.30
2023-10-10T22:15:55.929Z,15.30
2023-10-10T22:18:24.299Z,15.20
2023-10-10T22:20:54.041Z,15.10
2023-10-10T22:23:22.334Z,15.00
2023-10-10T22:25:52.894Z,15.00
2023-10-10T22:28:21.190Z,14.90
2023-10-10T22:30:50.477Z,14.90
2023-10-10T22:33:20.202Z,14.80
2023-10-10T22:35:50.815Z,14.80
2023-10-10T22:38:21.213Z,14.80
2023-10-10T22:40:49.564Z,14.80
2023-10-10T22:43:17.772Z,14.80
2023-10-10T22:45:46.290Z,14.80
2023-10-10T22:48:15.934Z,14.80
2023-10-10T22:50:44.649Z,14.70
2023-10-10T22:53:15.385Z,14.70
2023-10-10T22:55:47.806Z,14.60
2023-10-10T22:58:16.787Z,14.60
2023-10-10T23:00:48.718Z,14.50
2023-10-10T23:03:20.202Z,14.50
2023-10-10T23:05:49.193Z,14.50
2023-10-10T23:08:19.295Z,14.50
2023-10-10T23:10:50.254Z,14.50
2023-10-10T23:13:18.727Z,14.50
2023-10-10T23:15:50.250Z,14.50
2023-10-10T23:18:19.357Z,14.50
2023-10-10T23:20:48.052Z,14.50
2023-10-10T23:23:17.218Z,14.50
2023-10-10T23:25:48.391Z,14.50
2023-10-10T23:28:18.623Z,14.50
2023-10-10T23:30:46.886Z,14.50
2023-10-10T23:33:17.462Z,14.40
2023-10-10T23:35:49.592Z,14.40
2023-10-10T23:38:20.590Z,14.50
2023-10-10T23:40:50.158Z,14.50
2023-10-10T23:43:23.124Z,14.50
2023-10-10T23:45:57.799Z,14.50
2023-10-10T23:48:31.317Z,14.60
2023-10-10T23:51:01.056Z,14.60
2023-10-10T23:53:29.473Z,14.60
2023-10-10T23:56:00.281Z,14.60
2023-10-10T23:58:30.770Z,14.70
